sensor_id;sensor_type;location;lat;lon;timestamp;pressure;altitude;pressure_sealevel;temperature;humidity
47738;BME280;33502;47.182;27.506;2023-05-19T00:00:59;100617.22;;;12.51;100.00
47738;BME280;33502;47.182;27.506;2023-05-19T00:03:25;100606.72;;;12.48;100.00
47738;BME280;33502;47.182;27.506;2023-05-19T00:05:54;100601.28;;;12.51;100.00
47738;BME280;33502;47.182;27.506;2023-05-19T00:08:22;100600.31;;;12.52;100.00
47738;BME280;33502;47.182;27.506;2023-05-19T00:10:48;100593.22;;;12.53;100.00
47738;BME280;33502;47.182;27.506;2023-05-19T00:13:14;100575.56;;;12.52;100.00
47738;BME280;33502;47.182;27.506;2023-05-19T00:15:40;100578.00;;;12.57;100.00
47738;BME280;33502;47.182;27.506;2023-05-19T00:18:06;100577.94;;;12.58;100.00
47738;BME280;33502;47.182;27.506;2023-05-19T00:20:33;100572.63;;;12.58;100.00
47738;BME280;33502;47.182;27.506;2023-05-19T00:22:58;100579.66;;;12.59;100.00
47738;BME280;33502;47.182;27.506;2023-05-19T00:25:24;100575.03;;;12.63;100.00
47738;BME280;33502;47.182;27.506;2023-05-19T00:27:50;100578.50;;;12.65;100.00
47738;BME280;33502;47.182;27.506;2023-05-19T00:30:15;100582.03;;;12.65;100.00
47738;BME280;33502;47.182;27.506;2023-05-19T00:32:41;100591.78;;;12.65;100.00
47738;BME280;33502;47.182;27.506;2023-05-19T00:35:07;100605.78;;;12.68;100.00
47738;BME280;33502;47.182;27.506;2023-05-19T00:37:32;100609.38;;;12.67;100.00
47738;BME280;33502;47.182;27.506;2023-05-19T00:39:58;100616.56;;;12.65;100.00
47738;BME280;33502;47.182;27.506;2023-05-19T00:42:24;100614.91;;;12.63;100.00
47738;BME280;33502;47.182;27.506;2023-05-19T00:44:50;100625.38;;;12.66;100.00
47738;BME280;33502;47.182;27.506;2023-05-19T00:47:16;100620.06;;;12.66;100.00
47738;BME280;33502;47.182;27.506;2023-05-19T00:49:41;100612.97;;;12.66;100.00
47738;BME280;33502;47.182;27.506;2023-05-19T00:52:07;100613.75;;;12.68;100.00
47738;BME280;33502;47.182;27.506;2023-05-19T00:54:33;100620.78;;;12.69;100.00
47738;BME280;33502;47.182;27.506;2023-05-19T00:56:59;100623.53;;;12.68;100.00
47738;BME280;33502;47.182;27.506;2023-05-19T00:59:25;100613.63;;;12.71;100.00
47738;BME280;33502;47.182;27.506;2023-05-19T01:01:51;100620.38;;;12.79;100.00
47738;BME280;33502;47.182;27.506;2023-05-19T01:04:19;100623.81;;;12.81;100.00
47738;BME280;33502;47.182;27.506;2023-05-19T01:06:46;100615.84;;;12.81;100.00
47738;BME280;33502;47.182;27.506;2023-05-19T01:09:12;100608.00;;;12.78;100.00
47738;BME280;33502;47.182;27.506;2023-05-19T01:11:38;100610.72;;;12.76;100.00
47738;BME280;33502;47.182;27.506;2023-05-19T01:14:04;100615.19;;;12.76;100.00
47738;BME280;33502;47.182;27.506;2023-05-19T01:16:32;100601.91;;;12.76;100.00
47738;BME280;33502;47.182;27.506;2023-05-19T01:19:13;100612.53;;;12.76;100.00
47738;BME280;33502;47.182;27.506;2023-05-19T01:24:17;100627.81;;;12.70;100.00
47738;BME280;33502;47.182;27.506;2023-05-19T01:32:05;100604.00;;;12.69;100.00
47738;BME280;33502;47.182;27.506;2023-05-19T01:34:33;100610.16;;;12.69;100.00
47738;BME280;33502;47.182;27.506;2023-05-19T01:37:03;100606.00;;;12.64;100.00
47738;BME280;33502;47.182;27.506;2023-05-19T01:39:29;100609.81;;;12.58;100.00
47738;BME280;33502;47.182;27.506;2023-05-19T01:41:56;100618.91;;;12.52;100.00
47738;BME280;33502;47.182;27.506;2023-05-19T01:44:22;100618.34;;;12.46;100.00
47738;BME280;33502;47.182;27.506;2023-05-19T01:46:48;100628.25;;;12.42;100.00
47738;BME280;33502;47.182;27.506;2023-05-19T01:49:14;100630.19;;;12.39;100.00
47738;BME280;33502;47.182;27.506;2023-05-19T01:51:39;100637.38;;;12.37;100.00
47738;BME280;33502;47.182;27.506;2023-05-19T01:54:05;100648.78;;;12.39;100.00
47738;BME280;33502;47.182;27.506;2023-05-19T01:56:45;100652.22;;;12.41;100.00
47738;BME280;33502;47.182;27.506;2023-05-19T01:59:26;100653.06;;;12.41;100.00
47738;BME280;33502;47.182;27.506;2023-05-19T02:02:00;100643.31;;;12.42;100.00
47738;BME280;33502;47.182;27.506;2023-05-19T02:07:04;100629.22;;;12.40;100.00
47738;BME280;33502;47.182;27.506;2023-05-19T02:09:55;100625.06;;;12.34;100.00
47738;BME280;33502;47.182;27.506;2023-05-19T02:17:25;100631.38;;;12.31;100.00
47738;BME280;33502;47.182;27.506;2023-05-19T02:19:51;100630.59;;;12.29;100.00
47738;BME280;33502;47.182;27.506;2023-05-19T02:22:17;100631.59;;;12.27;100.00
47738;BME280;33502;47.182;27.506;2023-05-19T02:24:42;100642.28;;;12.25;100.00
47738;BME280;33502;47.182;27.506;2023-05-19T02:27:10;100639.63;;;12.25;100.00
47738;BME280;33502;47.182;27.506;2023-05-19T02:29:36;100644.94;;;12.25;100.00
47738;BME280;33502;47.182;27.506;2023-05-19T02:32:01;100642.28;;;12.25;100.00
47738;BME280;33502;47.182;27.506;2023-05-19T02:34:27;100656.41;;;12.26;100.00
47738;BME280;33502;47.182;27.506;2023-05-19T02:36:53;100656.34;;;12.27;100.00
47738;BME280;33502;47.182;27.506;2023-05-19T02:39:18;100653.81;;;12.24;100.00
47738;BME280;33502;47.182;27.506;2023-05-19T02:41:44;100663.53;;;12.25;100.00
47738;BME280;33502;47.182;27.506;2023-05-19T02:44:09;100660.72;;;12.28;100.00
47738;BME280;33502;47.182;27.506;2023-05-19T02:46:35;100663.31;;;12.30;100.00
47738;BME280;33502;47.182;27.506;2023-05-19T02:49:01;100667.72;;;12.31;100.00
47738;BME280;33502;47.182;27.506;2023-05-19T02:51:26;100668.56;;;12.31;100.00
47738;BME280;33502;47.182;27.506;2023-05-19T02:53:52;100677.38;;;12.32;100.00
47738;BME280;33502;47.182;27.506;2023-05-19T02:56:18;100673.00;;;12.31;100.00
47738;BME280;33502;47.182;27.506;2023-05-19T02:58:43;100675.59;;;12.32;100.00
47738;BME280;33502;47.182;27.506;2023-05-19T03:01:09;100676.41;;;12.34;100.00
47738;BME280;33502;47.182;27.506;2023-05-19T03:03:35;100687.88;;;12.35;100.00
47738;BME280;33502;47.182;27.506;2023-05-19T03:06:00;100681.72;;;12.34;100.00
47738;BME280;33502;47.182;27.506;2023-05-19T03:08:26;100694.91;;;12.36;100.00
47738;BME280;33502;47.182;27.506;2023-05-19T03:10:52;100705.63;;;12.34;100.00
47738;BME280;33502;47.182;27.506;2023-05-19T03:13:18;100698.44;;;12.37;100.00
47738;BME280;33502;47.182;27.506;2023-05-19T03:15:43;100709.78;;;12.40;100.00
47738;BME280;33502;47.182;27.506;2023-05-19T03:18:09;100694.72;;;12.41;100.00
47738;BME280;33502;47.182;27.506;2023-05-19T03:20:36;100696.41;;;12.42;100.00
47738;BME280;33502;47.182;27.506;2023-05-19T03:23:02;100694.50;;;12.45;100.00
47738;BME280;33502;47.182;27.506;2023-05-19T03:25:28;100694.44;;;12.47;100.00
47738;BME280;33502;47.182;27.506;2023-05-19T03:27:54;100715.63;;;12.48;100.00
47738;BME280;33502;47.182;27.506;2023-05-19T03:30:20;100711.16;;;12.49;100.00
47738;BME280;33502;47.182;27.506;2023-05-19T03:33:00;100708.50;;;12.49;100.00
47738;BME280;33502;47.182;27.506;2023-05-19T03:35:26;100707.53;;;12.51;100.00
47738;BME280;33502;47.182;27.506;2023-05-19T03:37:52;100701.19;;;12.54;100.00
47738;BME280;33502;47.182;27.506;2023-05-19T03:40:19;100702.91;;;12.55;100.00
47738;BME280;33502;47.182;27.506;2023-05-19T03:42:45;100702.84;;;12.57;100.00
47738;BME280;33502;47.182;27.506;2023-05-19T03:45:11;100700.13;;;12.58;100.00
47738;BME280;33502;47.182;27.506;2023-05-19T03:47:37;100686.78;;;12.60;100.00
47738;BME280;33502;47.182;27.506;2023-05-19T03:50:23;100703.69;;;12.57;100.00
47738;BME280;33502;47.182;27.506;2023-05-19T03:52:52;100709.97;;;12.56;100.00
47738;BME280;33502;47.182;27.506;2023-05-19T03:55:29;100714.31;;;12.57;100.00
47738;BME280;33502;47.182;27.506;2023-05-19T03:57:54;100727.41;;;12.62;100.00
47738;BME280;33502;47.182;27.506;2023-05-19T04:00:21;100736.19;;;12.64;100.00
47738;BME280;33502;47.182;27.506;2023-05-19T04:02:48;100728.94;;;12.67;100.00
47738;BME280;33502;47.182;27.506;2023-05-19T04:05:13;100726.22;;;12.69;100.00
47738;BME280;33502;47.182;27.506;2023-05-19T04:07:39;100725.22;;;12.71;100.00
47738;BME280;33502;47.182;27.506;2023-05-19T04:10:06;100734.19;;;12.69;100.00
47738;BME280;33502;47.182;27.506;2023-05-19T04:12:31;100735.91;;;12.70;100.00
47738;BME280;33502;47.182;27.506;2023-05-19T04:14:58;100742.00;;;12.72;100.00
47738;BME280;33502;47.182;27.506;2023-05-19T04:17:23;100738.09;;;12.81;100.00
47738;BME280;33502;47.182;27.506;2023-05-19T04:19:53;100743.19;;;12.85;100.00
47738;BME280;33502;47.182;27.506;2023-05-19T04:22:20;100741.13;;;12.92;100.00
47738;BME280;33502;47.182;27.506;2023-05-19T04:24:46;100732.72;;;13.01;100.00
47738;BME280;33502;47.182;27.506;2023-05-19T04:27:13;100734.72;;;13.15;100.00
47738;BME280;33502;47.182;27.506;2023-05-19T04:29:40;100732.94;;;13.16;100.00
47738;BME280;33502;47.182;27.506;2023-05-19T04:32:07;100730.13;;;13.19;100.00
47738;BME280;33502;47.182;27.506;2023-05-19T04:34:33;100739.75;;;13.21;100.00
47738;BME280;33502;47.182;27.506;2023-05-19T04:37:00;100746.81;;;13.22;100.00
47738;BME280;33502;47.182;27.506;2023-05-19T04:39:26;100741.50;;;13.22;100.00
47738;BME280;33502;47.182;27.506;2023-05-19T04:41:52;100730.16;;;13.38;100.00
47738;BME280;33502;47.182;27.506;2023-05-19T04:44:22;100737.81;;;13.63;100.00
47738;BME280;33502;47.182;27.506;2023-05-19T04:46:49;100748.16;;;13.86;100.00
47738;BME280;33502;47.182;27.506;2023-05-19T04:49:19;100754.00;;;13.76;100.00
47738;BME280;33502;47.182;27.506;2023-05-19T04:51:45;100747.91;;;13.74;100.00
47738;BME280;33502;47.182;27.506;2023-05-19T04:54:15;100745.78;;;13.63;100.00
47738;BME280;33502;47.182;27.506;2023-05-19T04:56:41;100746.94;;;13.57;100.00
47738;BME280;33502;47.182;27.506;2023-05-19T04:59:08;100737.28;;;13.55;100.00
47738;BME280;33502;47.182;27.506;2023-05-19T05:01:35;100754.22;;;13.54;100.00
47738;BME280;33502;47.182;27.506;2023-05-19T05:04:07;100772.69;;;13.57;100.00
47738;BME280;33502;47.182;27.506;2023-05-19T05:06:33;100758.44;;;13.58;100.00
47738;BME280;33502;47.182;27.506;2023-05-19T05:09:03;100753.06;;;13.59;100.00
47738;BME280;33502;47.182;27.506;2023-05-19T05:11:29;100750.81;;;13.69;100.00
47738;BME280;33502;47.182;27.506;2023-05-19T05:13:55;100742.06;;;13.84;100.00
47738;BME280;33502;47.182;27.506;2023-05-19T05:16:25;100748.75;;;14.28;100.00
47738;BME280;33502;47.182;27.506;2023-05-19T05:18:51;100738.72;;;14.33;100.00
47738;BME280;33502;47.182;27.506;2023-05-19T05:21:17;100733.31;;;14.85;100.00
47738;BME280;33502;47.182;27.506;2023-05-19T05:23:43;100731.56;;;15.18;100.00
47738;BME280;33502;47.182;27.506;2023-05-19T05:26:13;100751.00;;;15.04;100.00
47738;BME280;33502;47.182;27.506;2023-05-19T05:28:41;100771.91;;;14.78;100.00
47738;BME280;33502;47.182;27.506;2023-05-19T05:31:06;100772.00;;;14.42;100.00
47738;BME280;33502;47.182;27.506;2023-05-19T05:33:33;100765.06;;;14.22;100.00
47738;BME280;33502;47.182;27.506;2023-05-19T05:35:58;100759.00;;;14.18;100.00
47738;BME280;33502;47.182;27.506;2023-05-19T05:38:25;100761.28;;;14.43;100.00
47738;BME280;33502;47.182;27.506;2023-05-19T05:40:50;100752.31;;;14.79;100.00
47738;BME280;33502;47.182;27.506;2023-05-19T05:43:16;100754.38;;;15.39;100.00
47738;BME280;33502;47.182;27.506;2023-05-19T05:45:47;100769.88;;;15.49;100.00
47738;BME280;33502;47.182;27.506;2023-05-19T05:48:12;100778.16;;;15.92;100.00
47738;BME280;33502;47.182;27.506;2023-05-19T05:50:38;100771.00;;;15.92;100.00
47738;BME280;33502;47.182;27.506;2023-05-19T05:53:05;100769.84;;;15.96;100.00
47738;BME280;33502;47.182;27.506;2023-05-19T05:55:34;100764.66;;;16.54;100.00
47738;BME280;33502;47.182;27.506;2023-05-19T05:58:00;100777.69;;;16.74;100.00
47738;BME280;33502;47.182;27.506;2023-05-19T06:00:26;100783.72;;;16.78;100.00
47738;BME280;33502;47.182;27.506;2023-05-19T06:02:52;100789.03;;;16.49;100.00
47738;BME280;33502;47.182;27.506;2023-05-19T06:05:18;100791.38;;;17.27;100.00
47738;BME280;33502;47.182;27.506;2023-05-19T06:07:45;100784.97;;;19.04;100.00
47738;BME280;33502;47.182;27.506;2023-05-19T06:10:15;100782.91;;;18.69;100.00
47738;BME280;33502;47.182;27.506;2023-05-19T06:12:41;100787.34;;;19.46;100.00
47738;BME280;33502;47.182;27.506;2023-05-19T06:15:08;100792.84;;;19.31;100.00
47738;BME280;33502;47.182;27.506;2023-05-19T06:17:47;100785.50;;;19.59;100.00
47738;BME280;33502;47.182;27.506;2023-05-19T06:20:13;100786.56;;;19.56;100.00
47738;BME280;33502;47.182;27.506;2023-05-19T06:22:38;100784.88;;;20.63;100.00
47738;BME280;33502;47.182;27.506;2023-05-19T06:25:05;100788.84;;;21.04;98.82
47738;BME280;33502;47.182;27.506;2023-05-19T06:27:33;100782.56;;;21.72;93.04
47738;BME280;33502;47.182;27.506;2023-05-19T06:29:59;100783.16;;;21.75;90.50
47738;BME280;33502;47.182;27.506;2023-05-19T06:32:26;100790.06;;;22.00;91.61
47738;BME280;33502;47.182;27.506;2023-05-19T06:34:55;100786.19;;;22.46;89.37
47738;BME280;33502;47.182;27.506;2023-05-19T06:37:21;100783.63;;;22.45;84.90
47738;BME280;33502;47.182;27.506;2023-05-19T06:39:56;100791.66;;;20.91;94.06
47738;BME280;33502;47.182;27.506;2023-05-19T06:42:22;100791.53;;;21.16;93.06
47738;BME280;33502;47.182;27.506;2023-05-19T06:44:56;100786.03;;;21.51;92.23
47738;BME280;33502;47.182;27.506;2023-05-19T06:47:22;100794.81;;;21.64;90.08
47738;BME280;33502;47.182;27.506;2023-05-19T06:49:47;100790.84;;;21.80;91.61
47738;BME280;33502;47.182;27.506;2023-05-19T06:52:21;100783.94;;;21.55;90.57
47738;BME280;33502;47.182;27.506;2023-05-19T06:54:48;100787.50;;;21.33;89.99
47738;BME280;33502;47.182;27.506;2023-05-19T06:57:14;100783.34;;;21.95;89.91
47738;BME280;33502;47.182;27.506;2023-05-19T06:59:40;100781.94;;;22.44;84.73
47738;BME280;33502;47.182;27.506;2023-05-19T07:02:08;100785.00;;;22.60;81.22
47738;BME280;33502;47.182;27.506;2023-05-19T07:04:37;100776.97;;;21.52;86.07
47738;BME280;33502;47.182;27.506;2023-05-19T07:07:05;100788.00;;;21.04;91.79
47738;BME280;33502;47.182;27.506;2023-05-19T07:09:31;100783.31;;;20.83;91.90
47738;BME280;33502;47.182;27.506;2023-05-19T07:11:56;100795.56;;;19.68;100.00
47738;BME280;33502;47.182;27.506;2023-05-19T07:14:22;100785.16;;;18.75;100.00
47738;BME280;33502;47.182;27.506;2023-05-19T07:16:48;100785.88;;;18.65;100.00
47738;BME280;33502;47.182;27.506;2023-05-19T07:19:14;100802.00;;;19.16;100.00
47738;BME280;33502;47.182;27.506;2023-05-19T07:21:39;100784.06;;;19.29;100.00
47738;BME280;33502;47.182;27.506;2023-05-19T07:24:06;100796.44;;;18.93;100.00
47738;BME280;33502;47.182;27.506;2023-05-19T07:26:32;100801.13;;;18.64;100.00
47738;BME280;33502;47.182;27.506;2023-05-19T07:28:58;100801.50;;;18.98;100.00
47738;BME280;33502;47.182;27.506;2023-05-19T07:31:23;100798.63;;;20.47;100.00
47738;BME280;33502;47.182;27.506;2023-05-19T07:33:49;100797.66;;;20.48;97.49
47738;BME280;33502;47.182;27.506;2023-05-19T07:36:14;100800.44;;;19.50;100.00
47738;BME280;33502;47.182;27.506;2023-05-19T07:38:40;100773.81;;;18.97;100.00
47738;BME280;33502;47.182;27.506;2023-05-19T07:41:06;100777.94;;;18.50;100.00
47738;BME280;33502;47.182;27.506;2023-05-19T07:43:31;100774.72;;;18.32;100.00
47738;BME280;33502;47.182;27.506;2023-05-19T07:45:57;100764.25;;;20.04;100.00
47738;BME280;33502;47.182;27.506;2023-05-19T07:48:23;100764.97;;;21.56;96.49
47738;BME280;33502;47.182;27.506;2023-05-19T07:50:50;100777.41;;;23.27;82.82
47738;BME280;33502;47.182;27.506;2023-05-19T07:53:16;100787.78;;;23.72;77.61
47738;BME280;33502;47.182;27.506;2023-05-19T07:55:42;100782.63;;;23.59;76.67
47738;BME280;33502;47.182;27.506;2023-05-19T07:58:08;100779.78;;;23.61;75.54
47738;BME280;33502;47.182;27.506;2023-05-19T08:00:33;100785.69;;;24.05;74.61
47738;BME280;33502;47.182;27.506;2023-05-19T08:02:59;100775.91;;;23.94;73.46
47738;BME280;33502;47.182;27.506;2023-05-19T08:05:25;100776.50;;;23.57;75.14
47738;BME280;33502;47.182;27.506;2023-05-19T08:07:51;100779.44;;;23.85;73.45
47738;BME280;33502;47.182;27.506;2023-05-19T08:10:17;100787.41;;;24.26;72.52
47738;BME280;33502;47.182;27.506;2023-05-19T08:12:42;100785.00;;;23.93;72.77
47738;BME280;33502;47.182;27.506;2023-05-19T08:15:08;100783.00;;;25.01;73.79
47738;BME280;33502;47.182;27.506;2023-05-19T08:17:36;100776.91;;;25.36;66.59
47738;BME280;33502;47.182;27.506;2023-05-19T08:20:02;100777.97;;;25.16;65.39
47738;BME280;33502;47.182;27.506;2023-05-19T08:22:29;100777.94;;;25.26;65.68
47738;BME280;33502;47.182;27.506;2023-05-19T08:24:55;100763.97;;;25.30;65.44
47738;BME280;33502;47.182;27.506;2023-05-19T08:27:21;100777.31;;;25.87;68.93
47738;BME280;33502;47.182;27.506;2023-05-19T08:29:46;100770.72;;;26.08;62.71
47738;BME280;33502;47.182;27.506;2023-05-19T08:32:12;100768.72;;;26.54;61.23
47738;BME280;33502;47.182;27.506;2023-05-19T08:34:38;100771.56;;;26.26;61.68
47738;BME280;33502;47.182;27.506;2023-05-19T08:37:03;100770.66;;;26.00;60.97
47738;BME280;33502;47.182;27.506;2023-05-19T08:39:29;100767.97;;;25.72;63.19
47738;BME280;33502;47.182;27.506;2023-05-19T08:41:56;100771.88;;;25.87;61.90
47738;BME280;33502;47.182;27.506;2023-05-19T08:44:22;100771.84;;;26.59;61.37
47738;BME280;33502;47.182;27.506;2023-05-19T08:46:48;100764.94;;;26.91;58.17
47738;BME280;33502;47.182;27.506;2023-05-19T08:49:13;100761.22;;;26.66;59.08
47738;BME280;33502;47.182;27.506;2023-05-19T08:54:17;100768.25;;;24.76;66.93
47738;BME280;33502;47.182;27.506;2023-05-19T08:56:44;100771.47;;;24.22;66.06
47738;BME280;33502;47.182;27.506;2023-05-19T08:59:11;100769.28;;;23.17;72.24
47738;BME280;33502;47.182;27.506;2023-05-19T09:01:37;100768.16;;;24.68;67.44
47738;BME280;33502;47.182;27.506;2023-05-19T09:04:04;100763.06;;;25.02;65.91
47738;BME280;33502;47.182;27.506;2023-05-19T09:06:30;100768.06;;;23.91;68.49
47738;BME280;33502;47.182;27.506;2023-05-19T09:08:56;100760.47;;;24.34;69.01
47738;BME280;33502;47.182;27.506;2023-05-19T09:11:22;100756.19;;;24.51;68.37
47738;BME280;33502;47.182;27.506;2023-05-19T09:13:47;100750.69;;;24.23;69.97
47738;BME280;33502;47.182;27.506;2023-05-19T09:16:14;100754.84;;;24.08;71.88
47738;BME280;33502;47.182;27.506;2023-05-19T09:18:42;100756.72;;;24.74;69.13
47738;BME280;33502;47.182;27.506;2023-05-19T09:21:18;100762.72;;;24.77;67.57
47738;BME280;33502;47.182;27.506;2023-05-19T09:23:43;100760.91;;;24.39;69.04
47738;BME280;33502;47.182;27.506;2023-05-19T09:26:11;100762.47;;;24.41;70.94
47738;BME280;33502;47.182;27.506;2023-05-19T09:28:37;100755.19;;;23.74;72.55
47738;BME280;33502;47.182;27.506;2023-05-19T09:31:04;100761.31;;;23.76;77.08
47738;BME280;33502;47.182;27.506;2023-05-19T09:33:32;100756.22;;;23.82;75.06
47738;BME280;33502;47.182;27.506;2023-05-19T09:35:57;100760.88;;;23.61;77.63
47738;BME280;33502;47.182;27.506;2023-05-19T09:38:24;100762.19;;;23.86;76.26
47738;BME280;33502;47.182;27.506;2023-05-19T09:40:50;100760.22;;;23.78;74.64
47738;BME280;33502;47.182;27.506;2023-05-19T09:43:16;100753.22;;;23.76;76.00
47738;BME280;33502;47.182;27.506;2023-05-19T09:45:42;100753.53;;;24.12;76.06
47738;BME280;33502;47.182;27.506;2023-05-19T09:48:07;100745.13;;;24.15;73.62
47738;BME280;33502;47.182;27.506;2023-05-19T09:50:33;100741.97;;;24.39;72.17
47738;BME280;33502;47.182;27.506;2023-05-19T09:52:59;100745.13;;;24.15;74.34
47738;BME280;33502;47.182;27.506;2023-05-19T09:55:27;100736.66;;;24.67;71.21
47738;BME280;33502;47.182;27.506;2023-05-19T09:57:56;100740.13;;;24.30;73.81
47738;BME280;33502;47.182;27.506;2023-05-19T10:00:21;100734.13;;;24.65;71.10
47738;BME280;33502;47.182;27.506;2023-05-19T10:02:47;100731.38;;;24.75;71.78
47738;BME280;33502;47.182;27.506;2023-05-19T10:05:15;100723.91;;;24.87;70.92
47738;BME280;33502;47.182;27.506;2023-05-19T10:07:42;100728.47;;;24.86;68.87
47738;BME280;33502;47.182;27.506;2023-05-19T10:10:10;100727.97;;;25.38;69.77
47738;BME280;33502;47.182;27.506;2023-05-19T10:12:36;100726.03;;;25.48;70.23
47738;BME280;33502;47.182;27.506;2023-05-19T10:15:03;100726.44;;;25.71;66.58
47738;BME280;33502;47.182;27.506;2023-05-19T10:17:29;100725.53;;;25.07;71.38
47738;BME280;33502;47.182;27.506;2023-05-19T10:19:56;100720.41;;;25.04;69.87
47738;BME280;33502;47.182;27.506;2023-05-19T10:22:23;100726.63;;;25.14;68.84
47738;BME280;33502;47.182;27.506;2023-05-19T10:24:48;100723.72;;;25.71;69.04
47738;BME280;33502;47.182;27.506;2023-05-19T10:27:14;100721.78;;;25.64;66.69
47738;BME280;33502;47.182;27.506;2023-05-19T10:29:41;100721.34;;;26.04;65.78
47738;BME280;33502;47.182;27.506;2023-05-19T10:32:10;100714.31;;;25.30;64.98
47738;BME280;33502;47.182;27.506;2023-05-19T10:34:49;100707.19;;;25.29;68.84
47738;BME280;33502;47.182;27.506;2023-05-19T10:39:47;100701.78;;;25.29;66.96
47738;BME280;33502;47.182;27.506;2023-05-19T10:42:16;100708.84;;;25.57;65.52
47738;BME280;33502;47.182;27.506;2023-05-19T10:45:05;100713.97;;;25.78;66.90
47738;BME280;33502;47.182;27.506;2023-05-19T10:47:35;100691.31;;;26.24;62.56
47738;BME280;33502;47.182;27.506;2023-05-19T10:50:01;100694.06;;;25.88;65.30
47738;BME280;33502;47.182;27.506;2023-05-19T10:52:28;100693.41;;;26.56;63.18
47738;BME280;33502;47.182;27.506;2023-05-19T10:54:55;100698.84;;;26.30;65.06
47738;BME280;33502;47.182;27.506;2023-05-19T10:57:26;100682.59;;;26.38;63.65
47738;BME280;33502;47.182;27.506;2023-05-19T10:59:54;100680.44;;;26.68;62.54
47738;BME280;33502;47.182;27.506;2023-05-19T11:02:39;100671.41;;;26.41;63.88
47738;BME280;33502;47.182;27.506;2023-05-19T11:05:14;100689.16;;;26.27;63.64
47738;BME280;33502;47.182;27.506;2023-05-19T11:07:43;100686.84;;;26.41;64.29
47738;BME280;33502;47.182;27.506;2023-05-19T11:10:10;100675.81;;;26.42;62.95
47738;BME280;33502;47.182;27.506;2023-05-19T11:12:39;100681.28;;;26.68;65.09
47738;BME280;33502;47.182;27.506;2023-05-19T11:15:06;100694.63;;;26.62;61.73
47738;BME280;33502;47.182;27.506;2023-05-19T11:17:32;100689.59;;;26.75;60.62
47738;BME280;33502;47.182;27.506;2023-05-19T11:19:59;100692.63;;;26.64;60.82
47738;BME280;33502;47.182;27.506;2023-05-19T11:22:25;100683.81;;;26.44;63.92
47738;BME280;33502;47.182;27.506;2023-05-19T11:24:54;100684.38;;;26.55;64.56
47738;BME280;33502;47.182;27.506;2023-05-19T11:29:48;100680.03;;;26.97;61.57
47738;BME280;33502;47.182;27.506;2023-05-19T11:32:15;100695.22;;;27.16;62.58
47738;BME280;33502;47.182;27.506;2023-05-19T11:34:42;100675.31;;;27.58;60.54
47738;BME280;33502;47.182;27.506;2023-05-19T11:37:08;100685.38;;;27.82;59.71
47738;BME280;33502;47.182;27.506;2023-05-19T11:39:33;100683.31;;;28.25;57.24
47738;BME280;33502;47.182;27.506;2023-05-19T11:41:59;100665.31;;;27.91;58.06
47738;BME280;33502;47.182;27.506;2023-05-19T11:44:25;100670.50;;;27.36;57.80
47738;BME280;33502;47.182;27.506;2023-05-19T11:46:51;100668.34;;;27.56;56.34
47738;BME280;33502;47.182;27.506;2023-05-19T11:49:16;100662.53;;;27.42;58.46
47738;BME280;33502;47.182;27.506;2023-05-19T11:51:43;100658.22;;;27.23;59.18
47738;BME280;33502;47.182;27.506;2023-05-19T11:54:09;100659.31;;;27.47;60.69
47738;BME280;33502;47.182;27.506;2023-05-19T11:56:39;100659.69;;;27.77;57.34
47738;BME280;33502;47.182;27.506;2023-05-19T11:59:06;100649.31;;;27.80;61.98
47738;BME280;33502;47.182;27.506;2023-05-19T12:01:32;100652.03;;;27.64;58.01
47738;BME280;33502;47.182;27.506;2023-05-19T12:03:58;100651.03;;;27.89;58.24
47738;BME280;33502;47.182;27.506;2023-05-19T12:06:27;100636.72;;;27.71;58.45
47738;BME280;33502;47.182;27.506;2023-05-19T12:08:53;100639.44;;;28.12;58.18
47738;BME280;33502;47.182;27.506;2023-05-19T12:11:18;100627.69;;;28.28;56.85
47738;BME280;33502;47.182;27.506;2023-05-19T12:13:44;100625.50;;;27.74;57.01
47738;BME280;33502;47.182;27.506;2023-05-19T12:16:11;100630.41;;;27.38;58.86
47738;BME280;33502;47.182;27.506;2023-05-19T12:18:38;100610.38;;;27.63;57.11
47738;BME280;33502;47.182;27.506;2023-05-19T12:21:04;100626.19;;;27.84;57.95
47738;BME280;33502;47.182;27.506;2023-05-19T12:23:31;100620.41;;;28.04;56.25
47738;BME280;33502;47.182;27.506;2023-05-19T12:25:57;100611.38;;;27.95;57.24
47738;BME280;33502;47.182;27.506;2023-05-19T12:28:23;100604.06;;;27.79;57.94
47738;BME280;33502;47.182;27.506;2023-05-19T12:30:49;100618.34;;;27.57;57.83
47738;BME280;33502;47.182;27.506;2023-05-19T12:33:19;100613.41;;;27.85;63.82
47738;BME280;33502;47.182;27.506;2023-05-19T12:35:47;100610.56;;;27.95;57.42
47738;BME280;33502;47.182;27.506;2023-05-19T12:38:14;100607.47;;;28.06;59.49
47738;BME280;33502;47.182;27.506;2023-05-19T12:40:40;100603.69;;;28.23;56.50
47738;BME280;33502;47.182;27.506;2023-05-19T12:43:06;100599.56;;;28.44;56.16
47738;BME280;33502;47.182;27.506;2023-05-19T12:45:34;100581.38;;;28.36;56.42
47738;BME280;33502;47.182;27.506;2023-05-19T12:48:03;100577.53;;;28.62;57.13
47738;BME280;33502;47.182;27.506;2023-05-19T12:50:29;100569.59;;;28.52;54.45
47738;BME280;33502;47.182;27.506;2023-05-19T12:52:55;100571.78;;;28.48;55.69
47738;BME280;33502;47.182;27.506;2023-05-19T12:55:22;100569.81;;;28.34;54.98
47738;BME280;33502;47.182;27.506;2023-05-19T12:57:49;100574.31;;;28.58;55.09